createdAt,value
2023-05-16T00:06:23.589Z,15.40
2023-05-16T00:14:45.771Z,15.40
2023-05-16T00:22:09.966Z,15.40
2023-05-16T00:25:52.290Z,15.40
2023-05-16T00:28:37.761Z,15.60
2023-05-16T00:31:22.090Z,15.70
2023-05-16T00:33:54.345Z,15.70
2023-05-16T00:37:05.529Z,15.80
2023-05-16T00:39:37.071Z,15.80
2023-05-16T00:42:38.035Z,15.80
2023-05-16T00:48:10.781Z,15.30
2023-05-16T00:51:02.182Z,15.50
2023-05-16T00:53:37.391Z,15.60
2023-05-16T00:56:06.590Z,15.60
2023-05-16T00:58:34.182Z,15.70
2023-05-16T01:04:36.697Z,15.60
2023-05-16T01:10:04.578Z,15.70
2023-05-16T01:13:11.657Z,15.70
2023-05-16T01:17:03.606Z,15.60
2023-05-16T01:19:59.694Z,15.10
2023-05-16T01:22:46.228Z,15.00
2023-05-16T01:39:42.339Z,15.70
2023-05-16T01:51:14.563Z,15.40
2023-05-16T01:54:38.267Z,15.30
2023-05-16T01:57:52.515Z,15.50
2023-05-16T02:01:30.537Z,15.40
2023-05-16T02:20:24.800Z,15.50
2023-05-16T02:23:29.125Z,15.50
2023-05-16T02:26:04.585Z,15.50
2023-05-16T02:28:58.327Z,15.30
2023-05-16T02:31:33.260Z,15.20
2023-05-16T02:34:01.544Z,14.90
2023-05-16T02:39:53.199Z,15.00
2023-05-16T02:46:47.553Z,15.30
2023-05-16T02:56:07.432Z,15.40
2023-05-16T02:58:53.973Z,15.50
2023-05-16T03:01:31.261Z,15.50
2023-05-16T03:04:01.068Z,15.50
2023-05-16T03:06:51.908Z,15.50
2023-05-16T03:16:18.440Z,15.50
2023-05-16T03:18:54.139Z,15.40
2023-05-16T03:27:53.814Z,15.20
2023-05-16T03:30:29.417Z,15.20
2023-05-16T03:32:56.827Z,15.30
2023-05-16T03:35:31.774Z,15.30
2023-05-16T03:37:59.386Z,15.40
2023-05-16T03:43:45.359Z,15.30
2023-05-16T03:46:26.262Z,15.30
2023-05-16T03:51:53.086Z,15.40
2023-05-16T03:54:45.227Z,15.30
2023-05-16T03:57:37.366Z,15.30
2023-05-16T04:00:32.747Z,15.30
2023-05-16T04:03:17.933Z,15.20
2023-05-16T04:08:54.895Z,15.30
2023-05-16T04:11:23.361Z,15.30
2023-05-16T04:13:50.618Z,15.40
2023-05-16T04:16:17.899Z,15.30
2023-05-16T04:22:27.904Z,15.40
2023-05-16T04:25:20.583Z,15.40
2023-05-16T04:27:59.304Z,15.30
2023-05-16T04:30:56.992Z,15.30
2023-05-16T04:40:23.358Z,15.50
2023-05-16T04:46:11.639Z,15.50
2023-05-16T04:48:45.318Z,15.70
2023-05-16T04:55:13.362Z,15.80
2023-05-16T05:01:17.432Z,15.80
2023-05-16T05:04:27.004Z,15.40
2023-05-16T05:10:41.330Z,15.80
2023-05-16T05:13:14.224Z,15.80
2023-05-16T05:16:41.632Z,15.70
2023-05-16T05:23:34.299Z,16.20
2023-05-16T05:26:02.892Z,16.30
2023-05-16T05:31:44.324Z,16.20
2023-05-16T05:37:49.656Z,16.20
2023-05-16T05:41:31.140Z,16.20
2023-05-16T05:43:58.199Z,16.20
2023-05-16T05:46:26.953Z,16.30
2023-05-16T06:03:43.350Z,16.10
2023-05-16T06:24:41.529Z,16.30
2023-05-16T06:27:34.088Z,15.70
2023-05-16T06:33:09.089Z,15.80
2023-05-16T06:36:28.548Z,15.80
2023-05-16T06:42:51.154Z,16.00
2023-05-16T06:50:03.085Z,16.10
2023-05-16T06:55:26.974Z,16.50
2023-05-16T07:09:13.239Z,16.90
2023-05-16T07:13:15.288Z,17.00
2023-05-16T07:20:54.980Z,17.10
2023-05-16T07:41:06.626Z,17.20
2023-05-16T07:44:21.869Z,17.20
2023-05-16T07:50:10.630Z,17.20
2023-05-16T07:52:41.197Z,17.30
2023-05-16T07:58:58.085Z,17.40
2023-05-16T08:01:49.162Z,17.30
2023-05-16T08:07:56.382Z,17.50
2023-05-16T08:10:53.888Z,17.70
2023-05-16T08:17:53.648Z,18.10
2023-05-16T08:20:47.468Z,18.20
2023-05-16T08:23:48.135Z,18.10
2023-05-16T08:26:15.332Z,18.00
2023-05-16T08:29:06.856Z,17.90
2023-05-16T08:31:36.125Z,17.80
2023-05-16T08:41:11.810Z,17.70
2023-05-16T08:56:36.589Z,17.30
2023-05-16T08:59:33.573Z,17.40
2023-05-16T09:05:11.354Z,17.60
2023-05-16T09:14:30.220Z,17.50
2023-05-16T09:20:56.935Z,17.60
2023-05-16T09:23:28.017Z,17.60
2023-05-16T09:25:57.128Z,17.20
2023-05-16T09:28:26.415Z,17.30
2023-05-16T09:31:02.313Z,17.20
2023-05-16T09:33:36.635Z,17.20
2023-05-16T09:36:21.440Z,17.10
2023-05-16T09:38:51.608Z,17.00
2023-05-16T09:41:53.152Z,17.10
2023-05-16T09:44:38.581Z,17.40
2023-05-16T10:01:00.306Z,16.80
2023-05-16T10:03:35.950Z,16.50
2023-05-16T10:06:14.058Z,16.50
2023-05-16T10:08:44.422Z,16.50
2023-05-16T10:11:18.389Z,16.60
2023-05-16T10:13:53.395Z,16.90
2023-05-16T10:16:25.086Z,17.00
2023-05-16T10:18:53.517Z,17.20
2023-05-16T10:21:25.465Z,17.40
2023-05-16T10:24:05.301Z,17.50
2023-05-16T10:26:41.755Z,17.60
2023-05-16T10:29:23.492Z,17.80
2023-05-16T10:31:55.897Z,17.80
2023-05-16T10:34:24.954Z,17.90
2023-05-16T10:36:55.611Z,17.80
2023-05-16T10:39:25.558Z,17.80
2023-05-16T10:42:03.232Z,17.80
2023-05-16T10:44:48.591Z,17.70
2023-05-16T10:47:34.291Z,17.60
2023-05-16T10:53:22.287Z,17.40
2023-05-16T10:56:08.763Z,17.30
2023-05-16T10:59:17.211Z,17.20
2023-05-16T11:02:13.018Z,17.30
2023-05-16T11:05:00.971Z,17.20
2023-05-16T11:07:37.162Z,17.00
2023-05-16T11:10:20.621Z,17.00
2023-05-16T11:13:35.461Z,17.20
2023-05-16T11:26:32.183Z,16.70
2023-05-16T11:29:14.145Z,17.40
2023-05-16T11:35:27.360Z,17.80
2023-05-16T11:38:10.300Z,17.80
2023-05-16T11:43:28.476Z,18.60
2023-05-16T11:48:46.028Z,19.40
2023-05-16T11:51:15.228Z,19.80
2023-05-16T11:53:49.537Z,20.00
2023-05-16T11:56:26.351Z,19.90
2023-05-16T11:58:57.153Z,19.50
2023-05-16T12:01:31.630Z,19.70
2023-05-16T12:04:01.973Z,19.50
2023-05-16T12:07:43.408Z,19.30
2023-05-16T12:10:26.602Z,19.30
2023-05-16T12:13:06.505Z,19.10
2023-05-16T12:24:56.099Z,18.80
2023-05-16T12:27:58.849Z,19.10
2023-05-16T12:30:31.329Z,19.20
2023-05-16T12:33:13.411Z,19.50
2023-05-16T12:36:19.052Z,19.50
2023-05-16T12:38:56.241Z,19.30
2023-05-16T12:41:23.849Z,19.20
2023-05-16T12:47:14.870Z,18.90
2023-05-16T12:50:13.786Z,19.00
2023-05-16T12:53:04.908Z,18.90
2023-05-16T12:55:36.002Z,18.70
2023-05-16T12:58:12.461Z,18.70
2023-05-16T13:00:41.084Z,18.60
2023-05-16T13:03:08.750Z,18.60
2023-05-16T13:05:40.136Z,18.60
2023-05-16T13:08:07.852Z,18.60
2023-05-16T13:11:01.722Z,18.70
2023-05-16T13:14:12.298Z,18.80
2023-05-16T13:20:33.059Z,19.00
2023-05-16T13:23:00.926Z,19.50
2023-05-16T13:28:26.468Z,19.90
2023-05-16T13:30:53.769Z,19.90
2023-05-16T13:33:22.946Z,19.80
2023-05-16T13:35:58.205Z,20.00
2023-05-16T13:39:07.347Z,20.30
2023-05-16T13:41:55.984Z,20.40
2023-05-16T13:44:23.378Z,20.50
2023-05-16T13:55:30.619Z,22.80
2023-05-16T13:58:48.925Z,22.60
2023-05-16T14:02:03.518Z,21.80
2023-05-16T14:04:31.429Z,21.90
2023-05-16T14:07:03.219Z,22.30
2023-05-16T14:09:40.655Z,22.50
2023-05-16T14:12:51.515Z,22.70
2023-05-16T14:18:26.747Z,21.20
2023-05-16T14:20:59.238Z,21.20
2023-05-16T14:23:41.761Z,20.90
2023-05-16T14:26:37.133Z,20.50
2023-05-16T14:32:20.222Z,20.00
2023-05-16T14:35:24.231Z,19.90
2023-05-16T14:38:01.507Z,19.90
2023-05-16T14:40:36.766Z,19.90
2023-05-16T14:43:13.702Z,19.80
2023-05-16T14:45:53.206Z,19.90
2023-05-16T14:48:28.934Z,19.90
2023-05-16T14:51:26.360Z,19.70
2023-05-16T14:54:04.510Z,19.60
2023-05-16T14:57:05.635Z,19.40
2023-05-16T14:59:50.403Z,19.40
2023-05-16T15:02:20.812Z,19.50
2023-05-16T15:04:53.012Z,19.60
2023-05-16T15:07:51.167Z,19.70
2023-05-16T15:10:24.058Z,19.90
2023-05-16T15:13:04.370Z,19.90
2023-05-16T15:15:37.688Z,19.80
2023-05-16T15:21:09.286Z,20.20
2023-05-16T15:29:14.214Z,20.40
2023-05-16T15:31:52.543Z,20.50
2023-05-16T15:34:50.098Z,20.90
2023-05-16T15:40:27.390Z,22.80
2023-05-16T15:43:02.731Z,22.50
2023-05-16T15:48:46.205Z,20.30
2023-05-16T15:54:49.008Z,19.80
2023-05-16T16:07:51.659Z,20.00
2023-05-16T16:10:28.831Z,19.80
2023-05-16T16:16:13.848Z,19.60
2023-05-16T16:25:23.376Z,19.50
2023-05-16T17:03:38.496Z,18.50
2023-05-16T17:06:13.174Z,18.50
2023-05-16T17:08:47.135Z,18.50
2023-05-16T17:20:45.530Z,18.20
2023-05-16T17:23:44.181Z,18.20
2023-05-16T17:33:10.347Z,18.10
2023-05-16T17:38:48.927Z,18.10
2023-05-16T17:44:54.245Z,17.90
2023-05-16T17:47:35.941Z,17.90
2023-05-16T17:50:56.686Z,17.90
2023-05-16T17:53:50.002Z,17.90
2023-05-16T18:09:55.575Z,17.80
2023-05-16T18:13:06.608Z,17.70
2023-05-16T18:19:52.476Z,17.70
2023-05-16T18:25:38.853Z,17.70
2023-05-16T18:39:56.902Z,17.80
2023-05-16T19:07:39.933Z,17.60
2023-05-16T19:11:06.621Z,17.70
2023-05-16T20:10:00.191Z,17.10
2023-05-16T21:17:54.910Z,17.00
2023-05-16T21:24:52.586Z,16.80
2023-05-16T21:27:51.723Z,16.90
2023-05-16T21:31:15.398Z,16.80
2023-05-16T21:44:43.928Z,16.70
2023-05-16T22:06:32.402Z,16.80
2023-05-16T22:09:16.459Z,16.60
2023-05-16T22:16:42.350Z,16.40
2023-05-16T22:27:00.235Z,16.60
2023-05-16T22:32:35.278Z,16.60
2023-05-16T22:35:07.267Z,16.70
2023-05-16T22:37:35.995Z,16.40
2023-05-16T22:40:16.991Z,16.40
2023-05-16T22:43:06.867Z,16.30
2023-05-16T22:45:39.608Z,16.40
2023-05-16T22:51:18.043Z,16.50
2023-05-16T22:53:47.462Z,16.50
2023-05-16T22:56:48.063Z,16.50
2023-05-16T22:59:20.170Z,16.40
2023-05-16T23:02:06.159Z,16.20
2023-05-16T23:08:07.947Z,16.20
2023-05-16T23:11:08.259Z,16.40
2023-05-16T23:13:56.653Z,16.50
2023-05-16T23:16:46.739Z,16.30
2023-05-16T23:19:29.111Z,16.20
2023-05-16T23:24:41.159Z,16.10
2023-05-16T23:27:10.359Z,16.00
2023-05-16T23:29:45.374Z,16.10
2023-05-16T23:32:20.197Z,16.20
2023-05-16T23:34:52.987Z,16.20
2023-05-16T23:37:27.268Z,16.20
2023-05-16T23:40:04.796Z,16.20
2023-05-16T23:42:41.390Z,16.10
2023-05-16T23:45:19.293Z,15.90
2023-05-16T23:51:02.523Z,15.80
2023-05-16T23:53:41.938Z,15.60
2023-05-16T23:56:24.419Z,15.50
2023-05-16T23:59:01.999Z,15.60
